Wahpeton, ND (58074)

6:46 PM CDT on July 28, 2016 (GMT -0500)
North Wahpeton | | Change Station

Elev 961 ft 46.27 °N, 96.61 °W | Updated 11 minutes ago

Overcast
Overcast
77.7 °F
Feels Like 79 °F
N
1.7
Wind Variable Wind from NNW

Today
High -- | Low -- °F
--% Chance of Precip.
Yesterday
High -- | Low -- °F
Precip. -- in
Pressure 30.05 in
Visibility 10.0 miles
Clouds Scattered Clouds 4700 ft
Scattered Clouds 6500 ft
Overcast 10000 ft
Heat Index 79 °F
Dew Point 63 °F
Humidity 61%
Rainfall 0.00 in
Snow Depth Not available.
6:03 AM 9:01 PM
Waning Crescent, 27% visible
METAR KBWP 282335Z AUTO 00000KT 10SM SCT047 SCT065 OVC100 23/15 A3005 RMK AO1
Pressure 30.05 in
Visibility 10.0 miles
Clouds Scattered Clouds 4700 ft
Scattered Clouds 6500 ft
Overcast 10000 ft
Heat Index 79 °F
Dew Point 63 °F
Humidity 61%
Rainfall 0.00 in
Snow Depth Not available.
6:03 AM 9:01 PM
Waning Crescent, 27% visible
METAR KBWP 282335Z AUTO 00000KT 10SM SCT047 SCT065 OVC100 23/15 A3005 RMK AO1

10-Day Weather Forecast

Almanac

Astronomy

Jul. 28, 2016 Rise Set
Actual Time
Civil Twilight
Nautical Twilight
Astronomical Twilight
Moon
Length of Visible Light
Length of Day
Tomorrow will be .
, % of the Moon is Illuminated

Today's Extremes

State Highs State Lows

Community

WunderPhotos

Upload Photos

1,928,236 photos uploaded!

WunderBlog® & News

Nearby

Air Quality

  Air Quality AQ Index Pollutant
Not available.

Snow Depth

Station Depth Elevation

Earthquake Activity

City Distance Mag. Time & Date
Minimum magnitude displayed is 2.5.

Coastal Water Temperatures

Place Temperature

Stations

Nearby Weather Stations

Station Location Temp. Windchill Dew Point Humidity Wind Precip. Elev Updated Type
                   

Watches & Warnings

There are currently no watches in effect.